Time;durP1;ratioP1;P1;durP2;ratioP2;P2;SDS_P1;SDS_P2;PMS_P1;PMS_P2;Temp;Humidity;BMP_temperature;BMP_pressure;BME280_temperature;BME280_humidity;BME280_pressure;Samples;Min_cycle;Max_cycle;Signal;HPM_P1;HPM_P2
2023/10/23 00:15:50;;;;;;;17.73;15.80;;;18.00;99.90;;;;;;4592646;19;20024;-71
2023/10/23 00:17:27;;;;;;;15.48;13.88;;;18.00;99.90;;;;;;4592081;19;20002;-71
2023/10/23 00:19:01;;;;;;;17.45;14.60;;;18.00;99.90;;;;;;4593036;19;19999;-71
2023/10/23 00:20:35;;;;;;;15.35;13.70;;;18.00;99.90;;;;;;4593117;19;20021;-71
2023/10/23 00:22:11;;;;;;;14.65;13.10;;;18.00;99.90;;;;;;4593655;19;20006;-71
2023/10/23 00:23:45;;;;;;;17.25;14.40;;;18.00;99.90;;;;;;4593347;19;20009;-71
2023/10/23 00:25:19;;;;;;;15.27;13.63;;;18.00;99.90;;;;;;4592348;19;20425;-71
2023/10/23 00:26:55;;;;;;;16.13;14.43;;;18.00;99.90;;;;;;4593232;19;19998;-71
2023/10/23 00:28:30;;;;;;;15.27;13.52;;;18.00;99.90;;;;;;4593279;19;20007;-70
2023/10/23 00:30:04;;;;;;;16.23;13.77;;;17.90;99.90;;;;;;4593121;19;20013;-71
2023/10/23 00:31:39;;;;;;;17.30;13.65;;;18.00;99.90;;;;;;4593193;19;20032;-71
2023/10/23 00:33:13;;;;;;;17.08;14.38;;;18.00;99.90;;;;;;4592891;19;20078;-71
2023/10/23 00:34:47;;;;;;;17.10;14.15;;;18.00;99.90;;;;;;4592583;19;20017;-71
2023/10/23 00:36:23;;;;;;;16.00;13.65;;;18.00;99.90;;;;;;4593132;19;20024;-71
2023/10/23 00:37:57;;;;;;;14.98;13.30;;;18.00;99.90;;;;;;4593016;19;20069;-71
2023/10/23 00:39:32;;;;;;;14.40;12.07;;;18.00;99.90;;;;;;4592957;19;20006;-70
2023/10/23 00:41:07;;;;;;;17.98;14.10;;;17.90;99.90;;;;;;4592984;19;20363;-70
2023/10/23 00:42:42;;;;;;;20.27;16.08;;;18.00;99.90;;;;;;4591556;19;20330;-71
2023/10/23 00:44:16;;;;;;;29.23;22.40;;;17.90;99.90;;;;;;4592364;19;20002;-71
2023/10/23 00:45:57;;;;;;;32.38;25.05;;;17.90;99.90;;;;;;4592916;19;20001;-71
2023/10/23 00:47:30;;;;;;;29.23;23.33;;;18.00;99.90;;;;;;4591486;19;20007;-70
2023/10/23 00:49:04;;;;;;;28.88;24.00;;;18.00;99.90;;;;;;4591405;19;20002;-70
2023/10/23 00:50:40;;;;;;;25.42;20.10;;;18.00;99.90;;;;;;4592479;19;20006;-71
2023/10/23 00:52:14;;;;;;;22.08;18.40;;;18.00;99.90;;;;;;4592692;19;20323;-71
2023/10/23 00:53:48;;;;;;;22.42;17.65;;;17.90;99.90;;;;;;4590699;19;20010;-71
2023/10/23 00:55:23;;;;;;;24.50;21.20;;;18.00;99.90;;;;;;4590322;19;20025;-71
2023/10/23 00:56:58;;;;;;;23.33;19.27;;;17.90;99.90;;;;;;4592273;19;20002;-71
2023/10/23 00:58:32;;;;;;;22.75;18.08;;;17.90;99.90;;;;;;4591224;19;20002;-71
2023/10/23 01:00:08;;;;;;;20.90;17.17;;;17.90;99.90;;;;;;4591186;19;20006;-71
2023/10/23 01:01:43;;;;;;;23.33;17.75;;;18.00;99.90;;;;;;4592194;19;20002;-71
2023/10/23 01:03:17;;;;;;;24.55;18.55;;;18.00;99.90;;;;;;4591458;19;20005;-70
2023/10/23 01:04:52;;;;;;;20.25;17.50;;;18.00;99.90;;;;;;4591954;19;20010;-71
2023/10/23 01:06:27;;;;;;;22.80;18.20;;;18.00;99.90;;;;;;4591171;19;20003;-71
2023/10/23 01:08:01;;;;;;;22.20;17.60;;;18.00;99.90;;;;;;4592356;19;20021;-71
2023/10/23 01:09:36;;;;;;;24.10;17.92;;;17.90;99.90;;;;;;4591150;19;20074;-71
2023/10/23 01:11:11;;;;;;;26.60;17.98;;;18.00;99.90;;;;;;4591013;19;19999;-70
2023/10/23 01:12:47;;;;;;;21.58;16.88;;;18.00;99.90;;;;;;4591981;19;20422;-71
2023/10/23 01:14:22;;;;;;;21.85;18.52;;;17.90;99.90;;;;;;4591021;19;20301;-70
2023/10/23 01:15:56;;;;;;;19.95;16.83;;;18.00;99.90;;;;;;4592357;19;20007;-71
2023/10/23 01:17:30;;;;;;;23.20;18.25;;;18.00;99.90;;;;;;4592234;19;20329;-70
2023/10/23 01:19:05;;;;;;;23.13;18.02;;;18.00;99.90;;;;;;4592357;19;20025;-70
2023/10/23 01:20:39;;;;;;;26.60;20.65;;;17.90;99.90;;;;;;4592468;19;20377;-71
2023/10/23 01:22:13;;;;;;;20.55;17.58;;;18.00;99.90;;;;;;4590807;19;20002;-70
2023/10/23 01:23:48;;;;;;;21.73;18.08;;;17.90;99.90;;;;;;4591904;19;20029;-71
2023/10/23 01:25:22;;;;;;;21.23;16.45;;;17.90;99.90;;;;;;4589879;19;20006;-71
2023/10/23 01:26:56;;;;;;;21.55;18.23;;;17.90;99.90;;;;;;4592001;19;20137;-71
2023/10/23 01:28:32;;;;;;;21.42;18.48;;;17.90;99.90;;;;;;4592553;19;20014;-70
2023/10/23 01:30:08;;;;;;;19.83;16.55;;;17.90;99.90;;;;;;4592347;19;20007;-70
2023/10/23 01:31:42;;;;;;;18.48;16.38;;;17.90;99.90;;;;;;4592411;19;20447;-71
2023/10/23 01:33:18;;;;;;;19.33;16.65;;;17.90;99.90;;;;;;4596450;19;20011;-71
2023/10/23 01:34:52;;;;;;;20.98;16.80;;;17.90;99.90;;;;;;4595911;19;20007;-70
2023/10/23 01:36:26;;;;;;;20.83;17.85;;;17.90;99.90;;;;;;4597033;19;19999;-71
2023/10/23 01:38:01;;;;;;;20.15;17.35;;;17.90;99.90;;;;;;4596781;19;20025;-70
2023/10/23 01:39:36;;;;;;;22.80;17.23;;;17.90;99.90;;;;;;4596659;19;20025;-71
2023/10/23 01:41:10;;;;;;;19.88;16.42;;;17.90;99.90;;;;;;4596671;19;20158;-70
2023/10/23 01:42:48;;;;;;;20.45;16.05;;;17.90;99.90;;;;;;4596620;19;20035;-70
2023/10/23 01:44:22;;;;;;;16.30;13.98;;;17.90;99.90;;;;;;4596401;19;20309;-71
2023/10/23 01:45:57;;;;;;;19.85;15.68;;;17.90;99.90;;;;;;4596814;19;20524;-71
2023/10/23 01:47:33;;;;;;;17.90;14.25;;;17.90;99.90;;;;;;4596558;19;20440;-70
2023/10/23 01:49:07;;;;;;;17.60;15.32;;;17.90;99.90;;;;;;4595097;19;20009;-70
2023/10/23 01:50:42;;;;;;;20.25;15.43;;;17.90;99.90;;;;;;4596082;19;20007;-70
2023/10/23 01:52:17;;;;;;;18.30;14.65;;;17.90;99.90;;;;;;4596731;19;20013;-70
2023/10/23 01:53:51;;;;;;;21.80;16.98;;;17.90;99.90;;;;;;4594137;19;19998;-70
2023/10/23 01:55:25;;;;;;;19.90;16.30;;;17.90;99.90;;;;;;4594507;19;20421;-71
2023/10/23 01:57:01;;;;;;;18.95;17.00;;;17.90;99.90;;;;;;4596373;19;20013;-71
2023/10/23 01:58:35;;;;;;;18.15;14.93;;;17.90;99.90;;;;;;4596319;19;20003;-71
2023/10/23 02:00:10;;;;;;;19.30;14.98;;;17.90;99.90;;;;;;4596273;19;20306;-71
2023/10/23 02:01:46;;;;;;;18.42;15.68;;;17.90;99.90;;;;;;4594980;19;20029;-71
2023/10/23 02:03:20;;;;;;;20.63;16.88;;;17.90;99.90;;;;;;4595720;19;20002;-71
2023/10/23 02:04:55;;;;;;;20.27;16.83;;;17.90;99.90;;;;;;4595314;19;20003;-71
2023/10/23 02:06:30;;;;;;;22.42;18.08;;;17.90;99.90;;;;;;4596405;19;20007;-70
2023/10/23 02:08:04;;;;;;;21.10;16.75;;;17.90;99.90;;;;;;4596109;19;20002;-71
2023/10/23 02:09:38;;;;;;;21.23;17.83;;;17.80;99.90;;;;;;4596081;19;20006;-71
2023/10/23 02:11:13;;;;;;;19.42;17.33;;;17.90;99.90;;;;;;4596375;19;20321;-71
2023/10/23 02:12:48;;;;;;;18.88;16.88;;;17.90;99.90;;;;;;4596111;19;20003;-71
2023/10/23 02:14:22;;;;;;;18.42;15.48;;;17.90;99.90;;;;;;4594348;19;20317;-71
2023/10/23 02:15:58;;;;;;;19.58;15.68;;;17.90;99.90;;;;;;4596025;19;20010;-71
2023/10/23 02:17:32;;;;;;;18.05;15.15;;;17.90;99.90;;;;;;4596171;19;20425;-70
2023/10/23 02:19:06;;;;;;;16.42;14.60;;;17.80;99.90;;;;;;4594763;19;20003;-71
2023/10/23 02:20:41;;;;;;;15.90;14.25;;;17.90;99.90;;;;;;4595534;19;19998;-70
2023/10/23 02:22:16;;;;;;;17.17;14.13;;;17.80;99.90;;;;;;4594468;19;20002;-71
2023/10/23 02:23:50;;;;;;;16.25;14.55;;;17.90;99.90;;;;;;4595719;19;20309;-71
2023/10/23 02:25:27;;;;;;;17.00;14.20;;;17.90;99.90;;;;;;4594423;19;20007;-70
2023/10/23 02:27:02;;;;;;;17.55;14.13;;;17.90;99.90;;;;;;4595749;19;20065;-70
2023/10/23 02:28:37;;;;;;;16.33;13.10;;;17.80;99.90;;;;;;4595729;19;20006;-71
2023/10/23 02:30:13;;;;;;;17.70;14.98;;;17.90;99.90;;;;;;4596161;19;20090;-70
2023/10/23 02:31:47;;;;;;;16.27;14.50;;;17.90;99.90;;;;;;4595983;19;20445;-70
2023/10/23 02:33:21;;;;;;;16.85;14.27;;;17.80;99.90;;;;;;4595518;19;20003;-71
2023/10/23 02:34:56;;;;;;;16.98;15.18;;;17.90;99.90;;;;;;4595180;19;20003;-71
2023/10/23 02:36:31;;;;;;;16.60;14.90;;;17.80;99.90;;;;;;4595549;19;20002;-71
2023/10/23 02:38:05;;;;;;;16.48;14.68;;;17.80;99.90;;;;;;4595438;19;20073;-71
2023/10/23 02:39:40;;;;;;;16.50;14.77;;;17.80;99.90;;;;;;4595414;19;20003;-71
2023/10/23 02:41:14;;;;;;;18.73;14.18;;;17.80;99.90;;;;;;4595682;19;20025;-71
2023/10/23 02:42:48;;;;;;;17.42;14.45;;;17.80;99.90;;;;;;4595277;19;20417;-71
2023/10/23 02:44:24;;;;;;;17.20;14.95;;;17.90;99.90;;;;;;4595389;19;20447;-71
2023/10/23 02:46:06;;;;;;;17.13;15.40;;;17.80;99.90;;;;;;4595603;19;20003;-71
2023/10/23 02:47:40;;;;;;;16.90;14.85;;;17.90;99.90;;;;;;4595587;19;20435;-70
2023/10/23 02:49:16;;;;;;;16.05;14.38;;;17.80;99.90;;;;;;4595293;19;20014;-71
2023/10/23 02:50:55;;;;;;;16.35;14.65;;;17.80;99.90;;;;;;4595284;19;20027;-71
2023/10/23 02:52:29;;;;;;;15.70;14.00;;;17.80;99.90;;;;;;4593858;19;20007;-71
2023/10/23 02:54:04;;;;;;;16.02;14.35;;;17.80;99.90;;;;;;4594264;19;20010;-71
2023/10/23 02:55:40;;;;;;;29.55;14.35;;;17.80;99.90;;;;;;4592237;19;20019;-71
2023/10/23 02:57:14;;;;;;;15.85;14.15;;;17.80;99.90;;;;;;4594041;19;20039;-70
2023/10/23 02:58:49;;;;;;;15.82;14.10;;;17.80;99.90;;;;;;4593598;19;20017;-71
2023/10/23 03:00:23;;;;;;;16.10;14.48;;;17.80;99.90;;;;;;4594586;19;20019;-71
2023/10/23 03:01:59;;;;;;;17.02;14.27;;;17.80;99.90;;;;;;4595317;19;20093;-71
2023/10/23 03:03:34;;;;;;;15.98;13.98;;;17.80;99.90;;;;;;4595039;19;20073;-70
2023/10/23 03:05:08;;;;;;;17.95;14.57;;;17.80;99.90;;;;;;4594165;19;20005;-71
2023/10/23 03:06:42;;;;;;;15.32;13.50;;;17.80;99.90;;;;;;4594877;19;20002;-71
2023/10/23 03:08:17;;;;;;;17.20;13.40;;;17.80;99.90;;;;;;4593498;19;20058;-71
2023/10/23 03:09:51;;;;;;;14.50;13.00;;;17.80;99.90;;;;;;4594684;19;20031;-71
2023/10/23 03:11:25;;;;;;;13.98;12.48;;;17.80;99.90;;;;;;4593482;19;20021;-71
2023/10/23 03:13:01;;;;;;;14.73;12.27;;;17.80;99.90;;;;;;4594488;19;20006;-71
2023/10/23 03:14:35;;;;;;;14.82;13.02;;;17.80;99.90;;;;;;4592780;19;19998;-71
2023/10/23 03:16:10;;;;;;;16.25;13.75;;;17.80;99.90;;;;;;4593688;19;20007;-71
2023/10/23 03:17:46;;;;;;;16.85;13.40;;;17.80;99.90;;;;;;4594457;19;20015;-71
2023/10/23 03:19:22;;;;;;;14.30;12.60;;;17.80;99.90;;;;;;4594889;19;19999;-71
2023/10/23 03:21:02;;;;;;;15.25;12.68;;;17.80;99.90;;;;;;4594678;19;20007;-71
2023/10/23 03:22:38;;;;;;;15.80;13.85;;;17.80;99.90;;;;;;4593608;19;20007;-71
2023/10/23 03:24:12;;;;;;;15.60;13.73;;;17.80;99.90;;;;;;4594220;19;20006;-71
2023/10/23 03:25:47;;;;;;;15.00;13.40;;;17.80;99.90;;;;;;4594489;19;20003;-71
2023/10/23 03:27:22;;;;;;;15.23;13.60;;;17.80;99.90;;;;;;4593484;19;20011;-71
2023/10/23 03:28:56;;;;;;;14.38;12.88;;;17.80;99.90;;;;;;4594335;19;20003;-71
2023/10/23 03:30:30;;;;;;;14.77;13.27;;;17.80;99.90;;;;;;4594371;19;20002;-71
2023/10/23 03:32:06;;;;;;;15.10;13.30;;;17.80;99.90;;;;;;4595153;19;20012;-71
2023/10/23 03:33:40;;;;;;;16.55;13.48;;;17.80;99.90;;;;;;4594081;19;20436;-71
2023/10/23 03:35:14;;;;;;;17.17;13.30;;;17.80;99.90;;;;;;4591951;19;20002;-71
2023/10/23 03:36:51;;;;;;;13.85;12.38;;;17.80;99.90;;;;;;4592962;19;20018;-71
2023/10/23 03:38:25;;;;;;;14.63;12.98;;;17.80;99.90;;;;;;4593346;19;19998;-70
2023/10/23 03:39:59;;;;;;;16.60;13.77;;;17.70;99.90;;;;;;4593841;19;20007;-71
2023/10/23 03:41:35;;;;;;;14.45;12.10;;;17.80;99.90;;;;;;4594499;19;20300;-71
2023/10/23 03:43:09;;;;;;;14.43;12.13;;;17.80;99.90;;;;;;4594378;19;20013;-70
2023/10/23 03:44:45;;;;;;;14.07;12.18;;;17.80;99.90;;;;;;4593578;19;20003;-70
2023/10/23 03:46:20;;;;;;;14.00;12.48;;;17.80;99.90;;;;;;4594169;19;20083;-70
2023/10/23 03:47:56;;;;;;;14.45;12.85;;;17.90;99.90;;;;;;4594036;19;20006;-70
2023/10/23 03:49:29;;;;;;;13.18;11.77;;;17.90;99.90;;;;;;4592971;19;20011;-70
2023/10/23 03:51:05;;;;;;;15.90;11.93;;;18.00;99.90;;;;;;4594395;19;20013;-70
2023/10/23 03:52:39;;;;;;;16.60;12.45;;;18.10;99.90;;;;;;4593907;19;19999;-70
2023/10/23 03:54:13;;;;;;;17.25;13.60;;;18.10;99.90;;;;;;4591606;19;20002;-70
2023/10/23 03:55:48;;;;;;;16.25;13.50;;;18.20;99.90;;;;;;4593876;19;20002;-70
2023/10/23 03:57:22;;;;;;;17.77;13.65;;;18.30;99.90;;;;;;4593846;19;20007;-70
2023/10/23 03:58:56;;;;;;;18.15;14.77;;;18.40;99.90;;;;;;4593836;19;20029;-70
2023/10/23 04:00:32;;;;;;;16.15;14.45;;;18.50;99.90;;;;;;4593876;19;20010;-70
2023/10/23 04:02:06;;;;;;;16.58;14.10;;;18.50;99.90;;;;;;4593776;19;19999;-70
2023/10/23 04:03:41;;;;;;;17.75;13.63;;;18.60;99.90;;;;;;4593720;19;20467;-70
2023/10/23 04:05:16;;;;;;;15.85;14.00;;;18.60;99.90;;;;;;4592842;19;20010;-70
2023/10/23 04:06:51;;;;;;;17.90;14.77;;;18.70;99.90;;;;;;4593925;19;20009;-70
2023/10/23 04:08:25;;;;;;;17.52;15.30;;;18.70;99.90;;;;;;4593648;19;20429;-70
2023/10/23 04:10:01;;;;;;;17.25;14.23;;;18.70;99.90;;;;;;4593664;19;20028;-70
2023/10/23 04:11:35;;;;;;;18.73;13.45;;;18.80;99.90;;;;;;4593573;19;20053;-70
2023/10/23 04:13:08;;;;;;;16.38;14.70;;;18.80;99.90;;;;;;4593546;19;20309;-73
2023/10/23 04:14:46;;;;;;;17.08;14.75;;;18.80;99.90;;;;;;4592756;19;20010;-69
2023/10/23 04:16:21;;;;;;;16.55;14.70;;;18.80;99.90;;;;;;4593573;19;20006;-70
2023/10/23 04:17:56;;;;;;;18.05;16.15;;;18.80;99.90;;;;;;4593583;19;20003;-70
2023/10/23 04:19:32;;;;;;;18.52;16.52;;;18.80;99.90;;;;;;4593372;19;20006;-70
2023/10/23 04:21:07;;;;;;;19.95;16.85;;;18.80;99.90;;;;;;4593358;19;20070;-70
2023/10/23 04:22:40;;;;;;;23.50;17.58;;;18.80;99.90;;;;;;4591978;19;20006;-70
2023/10/23 04:24:16;;;;;;;17.88;15.77;;;18.80;99.90;;;;;;4593110;19;20010;-70
2023/10/23 04:25:56;;;;;;;19.48;17.38;;;18.80;99.90;;;;;;4591909;19;20134;-70
2023/10/23 04:27:31;;;;;;;22.10;17.02;;;18.70;99.90;;;;;;4592121;19;20303;-70
2023/10/23 04:29:06;;;;;;;19.70;16.48;;;18.80;99.90;;;;;;4592916;19;20305;-72
2023/10/23 04:30:40;;;;;;;23.00;17.35;;;18.80;99.90;;;;;;4593124;19;20006;-72
2023/10/23 04:32:14;;;;;;;21.17;17.83;;;18.70;99.90;;;;;;4591735;19;20003;-72
2023/10/23 04:33:49;;;;;;;22.23;17.98;;;18.70;99.90;;;;;;4591922;19;20306;-70
2023/10/23 04:35:23;;;;;;;21.27;17.33;;;18.70;99.90;;;;;;4591590;19;20007;-70
2023/10/23 04:36:58;;;;;;;20.38;16.48;;;18.70;99.90;;;;;;4591935;19;20418;-70
2023/10/23 04:38:35;;;;;;;21.00;16.52;;;18.70;99.90;;;;;;4592600;19;20010;-70
2023/10/23 04:40:09;;;;;;;18.52;15.20;;;18.70;99.90;;;;;;4592867;19;20027;-70
2023/10/23 04:41:43;;;;;;;19.13;17.10;;;18.70;99.90;;;;;;4592840;19;20006;-70
2023/10/23 04:43:18;;;;;;;19.42;15.95;;;18.80;99.90;;;;;;4592944;19;20429;-70
2023/10/23 04:44:52;;;;;;;16.67;14.93;;;18.80;99.90;;;;;;4592313;19;20036;-70
2023/10/23 04:46:26;;;;;;;19.83;14.77;;;18.80;99.90;;;;;;4593063;19;19999;-70
2023/10/23 04:48:05;;;;;;;17.75;14.80;;;18.90;99.90;;;;;;4593066;19;20460;-70
2023/10/23 04:49:39;;;;;;;20.13;14.85;;;19.00;99.90;;;;;;4593210;19;20310;-70
2023/10/23 04:51:13;;;;;;;17.63;14.88;;;19.00;99.90;;;;;;4592721;19;20062;-70
2023/10/23 04:52:50;;;;;;;16.35;13.18;;;19.10;99.90;;;;;;4592749;19;20003;-70
2023/10/23 04:54:25;;;;;;;16.45;14.45;;;19.20;99.90;;;;;;4591668;19;20021;-70
2023/10/23 04:55:59;;;;;;;16.95;14.05;;;19.20;99.90;;;;;;4592848;19;20434;-70
2023/10/23 04:57:34;;;;;;;16.67;13.75;;;19.20;99.90;;;;;;4592625;19;20007;-70
2023/10/23 04:59:08;;;;;;;16.15;13.85;;;19.30;99.90;;;;;;4592556;19;20013;-70
2023/10/23 05:00:44;;;;;;;15.98;14.13;;;19.30;99.90;;;;;;4591463;19;20441;-70
2023/10/23 05:02:19;;;;;;;17.17;14.65;;;19.40;99.90;;;;;;4592228;19;20429;-70
2023/10/23 05:03:53;;;;;;;15.88;14.18;;;19.40;99.90;;;;;;4592474;19;20455;-70
2023/10/23 05:05:26;;;;;;;15.55;13.55;;;19.50;99.90;;;;;;4591110;19;20025;-70
2023/10/23 05:07:02;;;;;;;17.65;13.48;;;19.50;99.90;;;;;;4590944;19;19999;-70
2023/10/23 05:08:36;;;;;;;16.92;14.77;;;19.50;99.90;;;;;;4592367;19;19999;-70
2023/10/23 05:10:11;;;;;;;17.45;14.27;;;19.50;99.90;;;;;;4592334;19;20294;-70
2023/10/23 05:11:46;;;;;;;17.58;14.57;;;19.50;99.90;;;;;;4592385;19;20370;-70
2023/10/23 05:13:20;;;;;;;18.20;14.95;;;19.50;99.90;;;;;;4592219;19;19995;-70
2023/10/23 05:14:55;;;;;;;16.88;14.45;;;19.50;99.90;;;;;;4591479;19;20078;-70
2023/10/23 05:16:31;;;;;;;16.13;14.43;;;19.40;99.90;;;;;;4592611;19;20006;-70
2023/10/23 05:18:06;;;;;;;16.98;14.38;;;19.40;99.90;;;;;;4591013;19;20002;-70
2023/10/23 05:19:40;;;;;;;16.95;14.25;;;19.40;99.90;;;;;;4590865;19;20303;-70
2023/10/23 05:21:15;;;;;;;16.10;13.80;;;19.40;99.90;;;;;;4591841;19;20002;-70
2023/10/23 05:22:49;;;;;;;15.88;13.95;;;19.30;99.90;;;;;;4590779;19;20003;-70
2023/10/23 05:24:23;;;;;;;15.40;13.80;;;19.30;99.90;;;;;;4591794;19;20062;-70
2023/10/23 05:25:58;;;;;;;16.20;13.65;;;19.30;99.90;;;;;;4592179;19;20096;-70
2023/10/23 05:27:32;;;;;;;16.60;14.55;;;19.30;99.90;;;;;;4590747;19;19999;-70
2023/10/23 05:29:06;;;;;;;16.77;14.48;;;19.20;99.90;;;;;;4591704;19;20409;-70
2023/10/23 05:30:41;;;;;;;16.20;13.95;;;19.20;99.90;;;;;;4591978;19;20414;-70
2023/10/23 05:32:15;;;;;;;15.68;13.38;;;19.20;99.90;;;;;;4591998;19;20011;-70
2023/10/23 05:33:49;;;;;;;17.23;15.27;;;19.20;99.90;;;;;;4591486;19;20054;-70
2023/10/23 05:35:25;;;;;;;16.10;14.40;;;19.20;99.90;;;;;;4590907;19;20010;-70
2023/10/23 05:37:00;;;;;;;16.95;14.35;;;19.10;99.90;;;;;;4591921;19;20429;-70
2023/10/23 05:38:33;;;;;;;16.98;14.93;;;19.10;99.90;;;;;;4591876;19;19998;-70
2023/10/23 05:40:09;;;;;;;18.67;16.27;;;19.10;99.90;;;;;;4592360;19;20011;-70
2023/10/23 05:41:43;;;;;;;17.80;15.90;;;19.00;99.90;;;;;;4591811;19;20366;-70
2023/10/23 05:43:17;;;;;;;20.35;17.92;;;19.00;99.90;;;;;;4590451;19;20022;-70
2023/10/23 05:44:53;;;;;;;18.10;16.20;;;19.00;99.90;;;;;;4590830;19;20449;-70
2023/10/23 05:46:28;;;;;;;18.48;16.58;;;19.00;99.90;;;;;;4591792;19;20006;-70
2023/10/23 05:48:02;;;;;;;19.58;17.33;;;19.00;99.90;;;;;;4591756;19;20002;-70
2023/10/23 05:49:38;;;;;;;20.92;18.10;;;18.90;99.90;;;;;;4591945;19;20414;-70
2023/10/23 05:51:11;;;;;;;18.67;16.35;;;18.90;99.90;;;;;;4591619;19;20010;-70
2023/10/23 05:52:46;;;;;;;19.63;17.52;;;18.90;99.90;;;;;;4591593;19;20025;-70
2023/10/23 05:54:21;;;;;;;19.63;17.52;;;18.90;99.90;;;;;;4590451;19;20101;-70
2023/10/23 05:55:55;;;;;;;19.75;17.65;;;18.80;99.90;;;;;;4591613;19;20015;-70
2023/10/23 05:57:29;;;;;;;18.70;16.67;;;18.80;99.90;;;;;;4590246;19;19999;-70
2023/10/23 05:59:05;;;;;;;20.25;18.13;;;18.80;99.90;;;;;;4591528;19;20358;-70
2023/10/23 06:00:39;;;;;;;19.67;17.67;;;18.80;99.90;;;;;;4591522;19;20005;-70
2023/10/23 06:02:13;;;;;;;19.70;17.60;;;18.80;99.90;;;;;;4591472;19;20003;-70
2023/10/23 06:03:48;;;;;;;19.00;16.92;;;18.80;99.90;;;;;;4592245;19;20023;-70
2023/10/23 06:05:22;;;;;;;20.42;18.42;;;18.80;99.90;;;;;;4590428;19;20035;-71
2023/10/23 06:06:56;;;;;;;19.88;16.92;;;18.80;99.90;;;;;;4591424;19;20010;-70
2023/10/23 06:08:31;;;;;;;18.70;16.48;;;18.70;99.90;;;;;;4591379;19;20459;-70
2023/10/23 06:10:05;;;;;;;18.02;16.13;;;18.70;99.90;;;;;;4590051;19;20037;-69
2023/10/23 06:11:39;;;;;;;17.58;15.68;;;18.70;99.90;;;;;;4590285;19;20369;-70
2023/10/23 06:13:14;;;;;;;22.48;16.10;;;18.70;99.90;;;;;;4591261;19;20028;-71
2023/10/23 06:14:48;;;;;;;18.38;16.15;;;18.70;99.90;;;;;;4589780;19;20327;-69
2023/10/23 06:16:22;;;;;;;17.25;15.48;;;18.70;99.90;;;;;;4591298;19;20006;-69
2023/10/23 06:17:57;;;;;;;17.92;15.95;;;18.60;99.90;;;;;;4592416;19;20003;-70
2023/10/23 06:19:33;;;;;;;19.50;16.42;;;18.60;99.90;;;;;;4595501;19;19999;-70
2023/10/23 06:21:07;;;;;;;18.42;15.60;;;18.60;99.90;;;;;;4595865;19;19999;-70
2023/10/23 06:22:42;;;;;;;18.00;16.13;;;18.60;99.90;;;;;;4594907;19;20074;-70
2023/10/23 06:24:16;;;;;;;21.38;18.05;;;18.60;99.90;;;;;;4595236;19;20429;-70
2023/10/23 06:25:56;;;;;;;23.88;17.25;;;18.60;99.90;;;;;;4595695;19;20017;-70
2023/10/23 06:27:33;;;;;;;22.73;18.00;;;18.60;99.90;;;;;;4595785;19;20007;-70
2023/10/23 06:29:07;;;;;;;20.90;17.25;;;18.60;99.90;;;;;;4595907;19;20417;-70
2023/10/23 06:30:41;;;;;;;22.05;18.00;;;18.60;99.90;;;;;;4595684;19;20025;-70
2023/10/23 06:32:18;;;;;;;22.13;19.33;;;18.60;99.90;;;;;;4595596;19;20069;-70
2023/10/23 06:33:54;;;;;;;24.65;19.80;;;18.60;99.90;;;;;;4594991;19;20015;-71
2023/10/23 06:35:27;;;;;;;26.30;22.08;;;18.60;99.90;;;;;;4594330;19;20007;-69
2023/10/23 06:37:03;;;;;;;25.88;22.15;;;18.60;99.90;;;;;;4595989;19;20310;-71
2023/10/23 06:38:38;;;;;;;21.83;19.48;;;18.60;99.90;;;;;;4596701;19;19998;-70
2023/10/23 06:40:12;;;;;;;22.73;18.00;;;18.60;99.90;;;;;;4596044;19;20002;-69
2023/10/23 06:41:49;;;;;;;20.70;17.27;;;18.60;99.90;;;;;;4594149;19;20329;-70
2023/10/23 06:43:23;;;;;;;19.20;16.25;;;18.60;99.90;;;;;;4594416;19;20327;-70
2023/10/23 06:44:57;;;;;;;16.92;14.43;;;18.60;99.90;;;;;;4593399;19;20009;-70
2023/10/23 06:46:32;;;;;;;17.55;14.63;;;18.60;99.90;;;;;;4595268;19;20011;-70
2023/10/23 06:48:06;;;;;;;15.23;13.10;;;18.60;99.90;;;;;;4593961;19;20009;-69
2023/10/23 06:49:46;;;;;;;15.30;12.70;;;18.60;99.90;;;;;;4594907;19;20026;-70
2023/10/23 06:51:22;;;;;;;13.55;12.07;;;18.50;99.90;;;;;;4595264;19;20083;-70
2023/10/23 06:52:56;;;;;;;12.98;11.25;;;18.50;99.90;;;;;;4595130;19;20077;-70
2023/10/23 06:54:30;;;;;;;13.23;10.88;;;18.50;99.90;;;;;;4593680;19;20015;-70
2023/10/23 06:56:06;;;;;;;14.05;11.57;;;18.50;99.90;;;;;;4593821;19;19999;-70
2023/10/23 06:57:40;;;;;;;17.42;12.05;;;18.50;99.90;;;;;;4594021;19;20058;-70
2023/10/23 06:59:14;;;;;;;13.60;12.20;;;18.50;99.90;;;;;;4594608;19;20017;-70
2023/10/23 07:00:50;;;;;;;14.18;12.57;;;18.50;99.90;;;;;;4595099;19;20007;-70
2023/10/23 07:02:24;;;;;;;15.85;12.20;;;18.50;99.90;;;;;;4594963;19;20327;-70
2023/10/23 07:03:58;;;;;;;14.45;12.95;;;18.40;99.90;;;;;;4594900;19;20007;-70
2023/10/23 07:05:33;;;;;;;14.73;13.18;;;18.40;99.90;;;;;;4592161;19;20030;-70
2023/10/23 07:07:07;;;;;;;16.75;13.93;;;18.40;99.90;;;;;;4594554;19;20010;-70
2023/10/23 07:08:41;;;;;;;27.02;16.55;;;18.40;99.90;;;;;;4595139;19;20024;-70
2023/10/23 07:10:16;;;;;;;19.95;16.88;;;18.40;99.90;;;;;;4593485;19;20013;-70
2023/10/23 07:11:51;;;;;;;20.13;16.25;;;18.40;99.90;;;;;;4594466;19;20002;-70
2023/10/23 07:13:25;;;;;;;17.67;14.70;;;18.40;99.90;;;;;;4593608;19;20006;-70
2023/10/23 07:15:01;;;;;;;17.67;15.75;;;18.40;99.90;;;;;;4593189;19;20467;-70
2023/10/23 07:16:35;;;;;;;16.85;15.00;;;18.40;99.90;;;;;;4595035;19;20098;-70
2023/10/23 07:18:10;;;;;;;18.40;15.57;;;18.40;99.90;;;;;;4594670;19;20326;-70
2023/10/23 07:19:45;;;;;;;18.58;15.60;;;18.40;99.90;;;;;;4594588;19;20003;-70
2023/10/23 07:21:21;;;;;;;19.00;15.10;;;18.40;99.90;;;;;;4594570;19;20024;-70
2023/10/23 07:22:55;;;;;;;20.67;16.85;;;18.40;99.90;;;;;;4594929;19;20298;-70
2023/10/23 07:24:31;;;;;;;20.25;15.20;;;18.30;99.90;;;;;;4594643;19;20009;-70
2023/10/23 07:26:10;;;;;;;17.38;15.02;;;18.30;99.90;;;;;;4593145;19;20013;-70
2023/10/23 07:27:45;;;;;;;18.88;14.57;;;18.30;99.90;;;;;;4593137;19;20023;-70
2023/10/23 07:29:20;;;;;;;15.68;13.07;;;18.30;99.90;;;;;;4592407;19;20013;-70
2023/10/23 07:30:54;;;;;;;16.52;13.52;;;18.30;99.90;;;;;;4594374;19;20092;-70
2023/10/23 07:32:28;;;;;;;18.42;14.00;;;18.30;99.90;;;;;;4594694;19;20019;-70
2023/10/23 07:34:05;;;;;;;20.83;15.82;;;18.30;99.90;;;;;;4592343;19;20003;-70
2023/10/23 07:35:39;;;;;;;20.58;15.82;;;18.30;99.90;;;;;;4591475;19;20477;-70
2023/10/23 07:37:17;;;;;;;20.48;14.95;;;18.30;99.90;;;;;;4592939;19;19998;-70
2023/10/23 07:38:53;;;;;;;22.85;20.67;;;18.30;99.90;;;;;;4594018;19;20429;-70
2023/10/23 07:40:27;;;;;;;24.17;21.75;;;17.40;99.90;;;;;;4594245;19;20003;-70
2023/10/23 07:42:01;;;;;;;24.15;21.65;;;16.10;99.90;;;;;;4594186;19;20015;-70
2023/10/23 07:43:36;;;;;;;24.75;21.92;;;15.50;99.90;;;;;;4594324;19;20003;-70
2023/10/23 07:45:10;;;;;;;23.42;21.02;;;15.20;99.90;;;;;;4591623;19;20028;-69
2023/10/23 07:46:46;;;;;;;22.83;19.83;;;15.00;99.90;;;;;;4593728;19;20065;-70
2023/10/23 07:48:24;;;;;;;22.58;20.17;;;14.90;99.90;;;;;;4594129;19;20010;-70
2023/10/23 07:49:58;;;;;;;22.35;19.95;;;14.90;99.90;;;;;;4592702;19;20012;-69
2023/10/23 07:51:32;;;;;;;27.10;24.23;;;14.80;99.90;;;;;;4593799;19;19998;-70
2023/10/23 07:53:08;;;;;;;22.38;20.08;;;14.80;99.90;;;;;;4594357;19;20007;-70
2023/10/23 07:54:42;;;;;;;22.25;19.85;;;14.80;99.90;;;;;;4591296;19;20002;-70
2023/10/23 07:56:16;;;;;;;20.20;17.77;;;14.80;99.90;;;;;;4592583;19;20073;-70
2023/10/23 07:57:52;;;;;;;19.45;17.10;;;14.80;99.90;;;;;;4592607;19;20025;-70
2023/10/23 07:59:27;;;;;;;17.45;15.65;;;14.70;99.90;;;;;;4593505;19;19998;-69
2023/10/23 08:01:11;;;;;;;21.40;17.98;;;14.70;99.90;;;;;;4592451;19;20307;-70
2023/10/23 08:02:49;;;;;;;17.60;15.18;;;14.70;99.90;;;;;;4593522;19;20422;-70
2023/10/23 08:04:25;;;;;;;17.40;14.93;;;14.80;99.90;;;;;;4593871;19;20024;-69
2023/10/23 08:06:00;;;;;;;17.08;15.27;;;14.70;99.90;;;;;;4594846;19;20436;-70
2023/10/23 08:07:35;;;;;;;19.08;16.23;;;14.70;99.90;;;;;;4594948;19;20032;-69
2023/10/23 08:09:10;;;;;;;16.73;14.93;;;14.70;99.90;;;;;;4594958;19;20005;-70
2023/10/23 08:10:44;;;;;;;16.38;14.68;;;14.70;99.90;;;;;;4594136;19;20015;-68
2023/10/23 08:12:20;;;;;;;17.77;15.75;;;14.80;99.90;;;;;;4594328;19;20011;-68
2023/10/23 08:13:55;;;;;;;16.25;14.55;;;14.70;99.90;;;;;;4594324;19;20120;-68
2023/10/23 08:15:30;;;;;;;17.60;15.07;;;14.70;99.90;;;;;;4592311;19;20018;-68
2023/10/23 08:17:05;;;;;;;18.25;16.35;;;14.70;99.90;;;;;;4593566;19;20006;-68